EDDVEDDG

Guest
Details From EDDV - Hannover
To EDDG - Muenster Osnabrueck
Flight Number -
Tags Generated
Created
Modified
Stats Distance 75 nm / 140 km
Max Altitude 0 ft / 0 m
Waypoints 2
Social Downloads 1
Likes 0
Share VATSIM

Download

Looking for another format? Having issues loading an existing format? Contact us
Advertisement - Login to hide

Notes

Generated

Route

EDDV EDDG

ID Type Via Altitude Latitude Longitude Leg Dist Tot Dist Heading (true) Name
O EDDV APT - 0 ft / 0 m 52.46820˚ 9.64854˚ - 0 nm - -
O EDDG APT - 0 ft / 0 m 52.13151˚ 7.67006˚ 75 nm 75 nm 255° / 254° -

Altitude Profile

Advertisement - Login to hide

EDDV

Details ICAO EDDV (HAJ)
Name Hannover
Region Germany - Civil
Timezone Europe/Berlin (UTC+1.0)
Stats Elevation 183 ft / 56 m (AMSL)
Location 52.462095° 9.686794°
Runways 3
Magnetic Variation 2.682° E

METAR

EDDV 182220Z 26003KT 220V290 9999 BKN022 03/M01 Q1028

Decode

TAF

TAF EDDV 181700Z 1818/1918 VRB02KT 8000 BKN025 BECMG 1822/1824 26007KT BKN013 BECMG 1903/1906 BKN008 TEMPO 1904/1918 2000 -RADZ BKN003

Decode

Departure Runways

ID Width Length Bearing (true) Bearing (mag) Surface Threshold Offset Overrun Length
09C 75 ft / 23 m 2,532 ft / 772 m 92.55° 89.87° Asphalt 213 ft / 65 m 0 ft / 0 m
09L 148 ft / 45 m 12,429 ft / 3,788 m 92.57° 89.89° Concrete 984 ft / 300 m 0 ft / 0 m
09R 148 ft / 45 m 7,653 ft / 2,333 m 92.60° 89.92° Concrete 0 ft / 0 m 0 ft / 0 m
27C 75 ft / 23 m 2,532 ft / 772 m 272.56° 269.88° Asphalt 541 ft / 165 m 0 ft / 0 m
27L 148 ft / 45 m 7,653 ft / 2,333 m 272.62° 269.94° Concrete 0 ft / 0 m 0 ft / 0 m
27R 148 ft / 45 m 12,429 ft / 3,788 m 272.61° 269.93° Concrete 984 ft / 300 m 0 ft / 0 m

EDDG

Details ICAO EDDG (FMO)
Name Muenster Osnabrueck
Region Germany - Civil
Timezone Europe/Berlin (UTC+1.0)
Stats Elevation 159 ft / 48 m (AMSL)
Location 52.134580° 7.684669°
Runways 1
Magnetic Variation 2.070° E

METAR

EDDG 182220Z 26002KT 3000 BR SCT003 BKN032 02/02 Q1029 TEMPO 2000 BKN004

Decode

TAF

TAF EDDG 181700Z 1818/1918 VRB03KT 4000 BR BKN006 TEMPO 1818/1821 6000 BKN004 TEMPO 1821/1904 2500 BR BKN004 BECMG 1904/1907 BKN004 TEMPO 1904/1918 2000 DZRA BECMG 1909/1912 23006KT

Decode

Destination Runways

ID Width Length Bearing (true) Bearing (mag) Surface Threshold Offset Overrun Length
07 148 ft / 45 m 7,303 ft / 2,226 m 70.93° 68.86° Asphalt 151 ft / 46 m 0 ft / 0 m
25 148 ft / 45 m 7,303 ft / 2,226 m 250.96° 248.89° Asphalt 292 ft / 89 m 0 ft / 0 m

Approach Navaids

Runway Type Ident Frequency Range Bearing (true) Bearing (mag) Slope Elevation
07 Localiser IMOE 111.90 MHz 18 nm / 33 km 70.93° 68.86° - 156 ft / 48 m (AMSL)
07 Glidescope IMOE 111.90 MHz 10 nm / 19 km 70.95° 68.88° 3.00° 156 ft / 48 m (AMSL)
25 Localiser IMOW 110.10 MHz 18 nm / 33 km 251.02° 248.95° - 159 ft / 48 m (AMSL)
25 Glidescope IMOW 110.10 MHz 10 nm / 19 km 250.95° 248.88° 3.00° 159 ft / 48 m (AMSL)

Popular Alternatives